createdAt,value
2023-04-17T00:01:04.191Z,101316.25
2023-04-17T00:02:10.909Z,101317.66
2023-04-17T00:03:14.250Z,101315.69
2023-04-17T00:04:18.480Z,101323.34
2023-04-17T00:05:23.445Z,101315.25
2023-04-17T00:06:27.554Z,101309.50
2023-04-17T00:07:30.019Z,101306.16
2023-04-17T00:08:34.948Z,101314.03
2023-04-17T00:09:37.825Z,101308.03
2023-04-17T00:10:44.417Z,101300.53
2023-04-17T00:11:51.072Z,101310.75
2023-04-17T00:12:54.611Z,101311.25
2023-04-17T00:13:57.193Z,101306.38
2023-04-17T00:15:00.948Z,101311.41
2023-04-17T00:16:03.901Z,101306.59
2023-04-17T00:17:07.254Z,101307.81
2023-04-17T00:18:13.180Z,101306.69
2023-04-17T00:19:17.047Z,101307.25
2023-04-17T00:20:19.878Z,101303.75
2023-04-17T00:21:23.328Z,101297.94
2023-04-17T00:22:25.862Z,101301.13
2023-04-17T00:23:29.642Z,101294.94
2023-04-17T00:24:32.259Z,101298.47
2023-04-17T00:25:35.599Z,101295.34
2023-04-17T00:26:38.083Z,101304.56
2023-04-17T00:27:43.365Z,101301.47
2023-04-17T00:28:47.770Z,101297.59
2023-04-17T00:29:50.977Z,101302.22
2023-04-17T00:30:53.314Z,101300.59
2023-04-17T00:31:56.740Z,101297.97
2023-04-17T00:32:59.225Z,101301.81
2023-04-17T00:34:02.695Z,101303.56
2023-04-17T00:35:05.735Z,101298.63
2023-04-17T00:36:13.737Z,101294.09
2023-04-17T00:37:16.183Z,101292.41
2023-04-17T00:38:19.695Z,101292.00
2023-04-17T00:39:22.162Z,101298.19
2023-04-17T00:40:25.934Z,101286.88
2023-04-17T00:41:28.515Z,101292.84
2023-04-17T00:42:32.845Z,101290.00
2023-04-17T00:43:36.769Z,101281.91
2023-04-17T00:44:40.325Z,101280.09
2023-04-17T00:45:42.812Z,101285.47
2023-04-17T00:46:47.810Z,101276.00
2023-04-17T00:47:52.197Z,101272.94
2023-04-17T00:48:56.275Z,101278.63
2023-04-17T00:49:59.227Z,101281.97
2023-04-17T00:51:03.585Z,101275.69
2023-04-17T00:52:11.631Z,101278.31
2023-04-17T00:53:15.834Z,101274.97
2023-04-17T00:54:19.383Z,101269.66
2023-04-17T00:55:26.259Z,101270.94
2023-04-17T00:56:30.160Z,101271.16
2023-04-17T00:57:35.827Z,101277.50
2023-04-17T00:58:41.339Z,101279.53
2023-04-17T00:59:46.978Z,101285.81
2023-04-17T01:00:50.069Z,101287.47
2023-04-17T01:01:54.436Z,101287.66
2023-04-17T01:02:57.904Z,101276.50
2023-04-17T01:04:05.360Z,101286.78
2023-04-17T01:05:09.070Z,101282.78
2023-04-17T01:06:13.865Z,101285.03
2023-04-17T01:07:16.804Z,101280.88
2023-04-17T01:08:21.029Z,101282.44
2023-04-17T01:09:24.205Z,101282.00
2023-04-17T01:10:27.944Z,101276.59
2023-04-17T01:11:31.414Z,101269.28
2023-04-17T01:12:35.916Z,101269.78
2023-04-17T01:13:46.703Z,101276.19
2023-04-17T01:14:51.637Z,101268.47
2023-04-17T01:15:54.293Z,101265.72
2023-04-17T01:16:58.234Z,101264.66
2023-04-17T01:18:01.638Z,101273.06
2023-04-17T01:19:06.532Z,101272.03
2023-04-17T01:20:11.162Z,101271.34
2023-04-17T01:21:15.248Z,101271.56
2023-04-17T01:22:18.188Z,101275.91
2023-04-17T01:23:21.652Z,101275.56
2023-04-17T01:24:25.891Z,101276.72
2023-04-17T01:25:29.900Z,101264.91
2023-04-17T01:26:32.724Z,101265.69
2023-04-17T01:27:36.708Z,101261.44
2023-04-17T01:28:39.503Z,101269.69
2023-04-17T01:29:43.939Z,101261.66
2023-04-17T01:30:46.830Z,101261.22
2023-04-17T01:31:50.545Z,101257.47
2023-04-17T01:32:54.656Z,101262.13
2023-04-17T01:33:58.228Z,101254.94
2023-04-17T01:35:00.662Z,101255.97
2023-04-17T01:36:04.658Z,101250.59
2023-04-17T01:37:07.702Z,101258.63
2023-04-17T01:38:11.603Z,101258.34
2023-04-17T01:39:15.910Z,101252.13
2023-04-17T01:40:21.079Z,101246.75
2023-04-17T01:41:23.609Z,101245.50
2023-04-17T01:42:27.598Z,101245.63
2023-04-17T01:43:30.476Z,101241.56
2023-04-17T01:44:34.203Z,101239.34
2023-04-17T01:45:36.719Z,101236.81
2023-04-17T01:46:40.268Z,101242.97
2023-04-17T01:47:42.749Z,101237.63
2023-04-17T01:48:46.468Z,101243.09
2023-04-17T01:49:49.567Z,101236.09
2023-04-17T01:50:53.095Z,101241.97
2023-04-17T01:51:55.450Z,101241.97
2023-04-17T01:52:59.550Z,101234.34
2023-04-17T01:54:02.125Z,101241.19
2023-04-17T01:55:06.447Z,101247.22
2023-04-17T01:56:10.756Z,101243.41
2023-04-17T01:57:14.185Z,101241.56
2023-04-17T01:58:16.683Z,101244.78
2023-04-17T01:59:20.222Z,101244.59
2023-04-17T02:00:23.389Z,101247.53
2023-04-17T02:01:26.894Z,101241.53
2023-04-17T02:02:29.273Z,101244.41
2023-04-17T02:03:33.364Z,101241.97
2023-04-17T02:04:35.914Z,101249.97
2023-04-17T02:05:39.471Z,101250.34
2023-04-17T02:06:42.506Z,101253.78
2023-04-17T02:07:46.093Z,101245.06
2023-04-17T02:08:48.458Z,101246.75
2023-04-17T02:09:51.829Z,101243.25
2023-04-17T02:10:54.178Z,101244.72
2023-04-17T02:11:59.216Z,101241.06
2023-04-17T02:13:01.888Z,101243.03
2023-04-17T02:14:05.602Z,101243.13
2023-04-17T02:15:09.332Z,101243.25
2023-04-17T02:16:12.974Z,101246.56
2023-04-17T02:17:15.644Z,101244.06
2023-04-17T02:18:19.616Z,101250.06
2023-04-17T02:19:23.446Z,101244.06
2023-04-17T02:20:27.124Z,101250.19
2023-04-17T02:21:29.635Z,101249.28
2023-04-17T02:22:33.085Z,101242.00
2023-04-17T02:23:35.554Z,101251.22
2023-04-17T02:24:39.311Z,101249.97
2023-04-17T02:25:41.675Z,101255.78
2023-04-17T02:26:46.320Z,101255.56
2023-04-17T02:27:51.119Z,101246.56
2023-04-17T02:28:54.578Z,101244.03
2023-04-17T02:29:57.102Z,101248.81
2023-04-17T02:31:00.816Z,101241.41
2023-04-17T02:32:03.536Z,101240.59
2023-04-17T02:33:07.486Z,101247.00
2023-04-17T02:34:10.194Z,101240.31
2023-04-17T02:35:13.662Z,101238.16
2023-04-17T02:36:16.671Z,101248.88
2023-04-17T02:37:20.069Z,101250.78
2023-04-17T02:38:22.618Z,101244.38
2023-04-17T02:39:27.343Z,101241.97
2023-04-17T02:40:29.783Z,101246.09
2023-04-17T02:41:33.503Z,101246.63
2023-04-17T02:42:36.285Z,101242.44
2023-04-17T02:43:41.813Z,101241.19
2023-04-17T02:44:46.559Z,101246.94
2023-04-17T02:45:49.829Z,101236.63
2023-04-17T02:46:52.407Z,101240.06
2023-04-17T02:47:56.150Z,101241.97
2023-04-17T02:48:58.856Z,101238.78
2023-04-17T02:50:03.168Z,101236.81
2023-04-17T02:51:06.091Z,101237.81
2023-04-17T02:52:10.527Z,101239.63
2023-04-17T02:53:13.296Z,101237.38
2023-04-17T02:54:17.095Z,101243.31
2023-04-17T02:55:21.334Z,101247.38
2023-04-17T02:56:24.914Z,101235.94
2023-04-17T02:57:27.819Z,101244.03
2023-04-17T02:58:31.211Z,101239.19
2023-04-17T02:59:35.013Z,101234.84
2023-04-17T03:00:40.889Z,101234.06
2023-04-17T03:01:45.832Z,101237.56
2023-04-17T03:02:49.818Z,101237.56
2023-04-17T03:03:53.043Z,101240.19
2023-04-17T03:04:56.947Z,101238.78
2023-04-17T03:05:59.412Z,101241.41
2023-04-17T03:07:04.217Z,101243.84
2023-04-17T03:08:06.880Z,101245.31
2023-04-17T03:09:12.484Z,101244.59
2023-04-17T03:10:15.859Z,101244.19
2023-04-17T03:11:19.274Z,101250.88
2023-04-17T03:12:21.784Z,101245.78
2023-04-17T03:13:26.031Z,101241.50
2023-04-17T03:14:28.709Z,101241.31
2023-04-17T03:15:33.863Z,101234.59
2023-04-17T03:16:36.672Z,101239.63
2023-04-17T03:17:40.613Z,101236.78
2023-04-17T03:18:43.098Z,101236.31
2023-04-17T03:19:47.115Z,101233.34
2023-04-17T03:20:49.527Z,101237.53
2023-04-17T03:21:53.678Z,101233.13
2023-04-17T03:22:56.936Z,101232.91
2023-04-17T03:24:00.653Z,101238.47
2023-04-17T03:25:03.625Z,101226.28
2023-04-17T03:26:08.145Z,101233.09
2023-04-17T03:27:10.866Z,101232.16
2023-04-17T03:28:15.323Z,101236.78
2023-04-17T03:29:17.892Z,101233.41
2023-04-17T03:30:21.440Z,101226.88
2023-04-17T03:31:25.931Z,101231.16
2023-04-17T03:32:29.681Z,101235.81
2023-04-17T03:33:32.076Z,101228.41
2023-04-17T03:34:35.332Z,101237.38
2023-04-17T03:35:38.518Z,101227.28
2023-04-17T03:36:41.993Z,101223.03
2023-04-17T03:37:44.466Z,101223.03
2023-04-17T03:38:48.317Z,101232.72
2023-04-17T03:39:50.643Z,101232.63
2023-04-17T03:40:54.219Z,101223.06
2023-04-17T03:41:56.525Z,101227.75
2023-04-17T03:43:00.532Z,101227.28
2023-04-17T03:44:03.037Z,101227.94
2023-04-17T03:45:07.325Z,101221.69
2023-04-17T03:46:10.167Z,101226.59
2023-04-17T03:47:15.661Z,101221.34
2023-04-17T03:48:18.220Z,101224.72
2023-04-17T03:49:21.882Z,101224.66
2023-04-17T03:50:24.534Z,101219.28
2023-04-17T03:51:28.803Z,101220.31
2023-04-17T03:52:31.226Z,101218.06
2023-04-17T03:53:34.805Z,101215.66
2023-04-17T03:54:37.367Z,101221.25
2023-04-17T03:55:40.995Z,101221.56
2023-04-17T03:56:43.628Z,101214.53
2023-04-17T03:57:48.745Z,101220.69
2023-04-17T03:58:51.735Z,101218.03
2023-04-17T03:59:55.459Z,101220.53
2023-04-17T04:00:58.753Z,101214.38
2023-04-17T04:02:02.427Z,101217.59
2023-04-17T04:03:07.807Z,101221.53
2023-04-17T04:04:12.509Z,101224.50
2023-04-17T04:05:15.996Z,101219.19
2023-04-17T04:06:20.469Z,101218.16
2023-04-17T04:07:23.055Z,101219.47
2023-04-17T04:08:27.268Z,101222.19
2023-04-17T04:09:30.039Z,101218.09
2023-04-17T04:10:33.879Z,101219.22
2023-04-17T04:11:36.854Z,101225.78
2023-04-17T04:12:41.213Z,101225.78
2023-04-17T04:13:43.839Z,101216.97
2023-04-17T04:14:47.432Z,101223.22
2023-04-17T04:15:50.224Z,101220.19
2023-04-17T04:16:54.269Z,101218.16
2023-04-17T04:17:56.849Z,101211.00
2023-04-17T04:19:02.002Z,101221.09
2023-04-17T04:20:05.326Z,101208.06
2023-04-17T04:21:08.982Z,101219.03
2023-04-17T04:22:13.702Z,101218.78
2023-04-17T04:23:17.272Z,101216.00
2023-04-17T04:24:20.549Z,101220.78
2023-04-17T04:25:24.148Z,101215.94
2023-04-17T04:26:27.339Z,101213.50
2023-04-17T04:27:33.014Z,101220.78
2023-04-17T04:28:35.619Z,101214.41
2023-04-17T04:29:39.266Z,101215.47
2023-04-17T04:30:41.800Z,101212.75
2023-04-17T04:31:47.141Z,101215.59
2023-04-17T04:32:49.684Z,101213.94
2023-04-17T04:33:55.436Z,101214.78
2023-04-17T04:35:02.432Z,101213.72
2023-04-17T04:36:06.744Z,101213.19
2023-04-17T04:37:09.546Z,101216.41
2023-04-17T04:38:14.518Z,101216.41
2023-04-17T04:39:20.882Z,101221.28
2023-04-17T04:40:24.725Z,101217.28
2023-04-17T04:41:27.145Z,101224.09
2023-04-17T04:42:30.550Z,101219.75
2023-04-17T04:43:33.849Z,101217.81
2023-04-17T04:44:37.870Z,101220.00
2023-04-17T04:45:40.677Z,101219.56
2023-04-17T04:46:44.074Z,101221.66
2023-04-17T04:47:46.621Z,101232.44
2023-04-17T04:48:50.307Z,101227.22
2023-04-17T04:49:53.247Z,101232.25
2023-04-17T04:50:58.398Z,101229.44
2023-04-17T04:52:00.778Z,101227.22
2023-04-17T04:53:04.379Z,101224.47
2023-04-17T04:54:07.093Z,101225.94
2023-04-17T04:55:10.838Z,101228.56
2023-04-17T04:56:13.259Z,101220.50
2023-04-17T04:57:17.259Z,101222.31
2023-04-17T04:58:19.828Z,101223.91
2023-04-17T04:59:23.409Z,101227.34
2023-04-17T05:00:26.539Z,101227.66
2023-04-17T05:01:30.398Z,101229.94
2023-04-17T05:02:33.430Z,101231.88
2023-04-17T05:03:37.732Z,101227.91
2023-04-17T05:04:40.429Z,101233.69
2023-04-17T05:05:45.059Z,101220.50
2023-04-17T05:06:49.824Z,101229.13
2023-04-17T05:07:53.726Z,101230.28
2023-04-17T05:08:57.276Z,101229.91
2023-04-17T05:09:59.549Z,101231.06
2023-04-17T05:11:03.031Z,101228.78
2023-04-17T05:12:06.550Z,101229.88
2023-04-17T05:13:10.471Z,101239.22
2023-04-17T05:14:13.626Z,101236.72
2023-04-17T05:15:17.585Z,101233.56
2023-04-17T05:16:21.030Z,101231.88
2023-04-17T05:17:23.679Z,101232.91
2023-04-17T05:18:27.495Z,101242.13
2023-04-17T05:19:30.531Z,101234.25
2023-04-17T05:20:33.993Z,101241.38
2023-04-17T05:21:36.527Z,101245.84
2023-04-17T05:22:41.526Z,101250.94
2023-04-17T05:23:43.915Z,101249.94
2023-04-17T05:24:47.626Z,101253.34
2023-04-17T05:25:50.785Z,101251.03
2023-04-17T05:26:54.863Z,101255.38
2023-04-17T05:27:57.332Z,101261.75
2023-04-17T05:29:01.000Z,101267.34
2023-04-17T05:30:03.616Z,101263.44
2023-04-17T05:31:07.587Z,101265.53
2023-04-17T05:32:10.558Z,101260.81
2023-04-17T05:33:14.158Z,101269.00
2023-04-17T05:34:16.544Z,101269.53
2023-04-17T05:35:19.984Z,101266.63
2023-04-17T05:36:22.947Z,101260.69
2023-04-17T05:37:26.319Z,101270.88
2023-04-17T05:38:32.078Z,101270.34
2023-04-17T05:39:34.690Z,101272.41
2023-04-17T05:40:38.285Z,101271.34
2023-04-17T05:41:40.715Z,101271.06
2023-04-17T05:42:44.824Z,101276.00
2023-04-17T05:43:47.530Z,101271.69
2023-04-17T05:44:51.183Z,101279.81
2023-04-17T05:45:53.926Z,101277.28
2023-04-17T05:47:00.244Z,101281.50
2023-04-17T05:48:03.423Z,101284.47
2023-04-17T05:49:07.306Z,101284.81
2023-04-17T05:50:10.119Z,101281.75
2023-04-17T05:51:14.092Z,101284.78
2023-04-17T05:52:18.014Z,101286.78
2023-04-17T05:53:21.366Z,101281.41
2023-04-17T05:54:25.136Z,101283.22
2023-04-17T05:55:28.723Z,101290.28
2023-04-17T05:56:31.732Z,101287.41
2023-04-17T05:57:35.845Z,101293.34
2023-04-17T05:58:38.513Z,101294.16
2023-04-17T05:59:42.167Z,101291.06
2023-04-17T06:00:45.197Z,101297.22
2023-04-17T06:01:48.920Z,101296.53
2023-04-17T06:02:51.649Z,101298.81
2023-04-17T06:03:55.376Z,101295.03
2023-04-17T06:04:58.750Z,101290.81
2023-04-17T06:06:02.675Z,101291.25
2023-04-17T06:07:06.338Z,101292.41
2023-04-17T06:08:09.963Z,101288.28
2023-04-17T06:09:12.933Z,101294.13
2023-04-17T06:10:18.090Z,101299.50
2023-04-17T06:11:20.747Z,101294.03
2023-04-17T06:12:24.384Z,101293.94
2023-04-17T06:13:27.344Z,101297.97
2023-04-17T06:14:30.806Z,101307.44
2023-04-17T06:15:33.215Z,101302.97
2023-04-17T06:16:37.254Z,101304.19
2023-04-17T06:17:41.032Z,101307.38
2023-04-17T06:18:44.393Z,101302.13
2023-04-17T06:19:46.758Z,101302.28
2023-04-17T06:20:50.951Z,101306.88
2023-04-17T06:21:53.523Z,101306.59
2023-04-17T06:22:57.279Z,101306.16
2023-04-17T06:24:00.054Z,101300.72
2023-04-17T06:25:03.560Z,101310.41
2023-04-17T06:26:07.487Z,101309.56
2023-04-17T06:27:11.074Z,101312.19
2023-04-17T06:28:13.730Z,101320.28
2023-04-17T06:29:17.538Z,101314.91
2023-04-17T06:30:21.479Z,101320.78
2023-04-17T06:31:24.955Z,101319.50
2023-04-17T06:32:27.446Z,101314.53
2023-04-17T06:33:30.982Z,101319.00
2023-04-17T06:34:33.442Z,101314.53
2023-04-17T06:35:39.633Z,101312.72
2023-04-17T06:36:42.159Z,101315.34
2023-04-17T06:37:45.512Z,101309.75
2023-04-17T06:38:48.278Z,101311.34
2023-04-17T06:39:51.871Z,101311.34
2023-04-17T06:40:54.174Z,101320.97
2023-04-17T06:41:59.451Z,101312.97
2023-04-17T06:43:02.074Z,101314.97
2023-04-17T06:44:05.523Z,101319.81
2023-04-17T06:45:10.418Z,101321.06
2023-04-17T06:46:14.000Z,101315.31
2023-04-17T06:47:16.409Z,101320.09
2023-04-17T06:48:19.758Z,101312.75
2023-04-17T06:49:22.463Z,101311.47
2023-04-17T06:50:26.436Z,101313.91
2023-04-17T06:51:29.387Z,101313.56
2023-04-17T06:52:32.735Z,101306.16
2023-04-17T06:53:35.141Z,101307.56
2023-04-17T06:54:40.416Z,101309.75
2023-04-17T06:55:42.880Z,101310.31
2023-04-17T06:56:46.372Z,101316.91
2023-04-17T06:57:50.231Z,101319.97
2023-04-17T06:58:54.746Z,101320.56
2023-04-17T06:59:57.424Z,101317.91
2023-04-17T07:01:00.914Z,101317.91
2023-04-17T07:02:03.675Z,101322.25
2023-04-17T07:03:07.914Z,101321.56
2023-04-17T07:04:10.909Z,101320.81
2023-04-17T07:05:14.420Z,101316.94
2023-04-17T07:06:17.383Z,101317.53
2023-04-17T07:07:21.337Z,101319.72
2023-04-17T07:08:23.907Z,101323.66
2023-04-17T07:09:27.604Z,101319.41
2023-04-17T07:10:29.990Z,101329.94
2023-04-17T07:11:33.493Z,101322.78
2023-04-17T07:12:36.339Z,101330.31
2023-04-17T07:13:41.409Z,101326.34
2023-04-17T07:14:43.998Z,101331.09
2023-04-17T07:15:52.877Z,101327.84
2023-04-17T07:16:57.011Z,101329.16
2023-04-17T07:17:59.926Z,101332.53
2023-04-17T07:19:03.346Z,101327.88
2023-04-17T07:20:08.692Z,101331.47
2023-04-17T07:21:12.195Z,101334.56
2023-04-17T07:22:14.448Z,101328.69
2023-04-17T07:23:17.697Z,101320.97
2023-04-17T07:24:20.022Z,101335.31
2023-04-17T07:25:23.339Z,101333.63
2023-04-17T07:26:26.724Z,101333.03
2023-04-17T07:27:29.158Z,101323.47
2023-04-17T07:28:32.592Z,101328.03
2023-04-17T07:29:36.432Z,101327.88
2023-04-17T07:30:39.833Z,101323.03
2023-04-17T07:31:43.318Z,101328.44
2023-04-17T07:32:47.083Z,101331.44
2023-04-17T07:33:50.726Z,101328.84
2023-04-17T07:34:54.122Z,101331.25
2023-04-17T07:35:56.416Z,101334.88
2023-04-17T07:36:59.727Z,101330.66
2023-04-17T07:38:04.493Z,101336.31
2023-04-17T07:39:08.236Z,101327.78
2023-04-17T07:40:13.621Z,101332.16
2023-04-17T07:41:17.913Z,101333.16
2023-04-17T07:42:20.235Z,101336.59
2023-04-17T07:43:23.466Z,101328.03
2023-04-17T07:44:26.815Z,101328.16
2023-04-17T07:45:39.123Z,101329.38
2023-04-17T07:46:42.634Z,101332.84
2023-04-17T07:47:46.065Z,101334.72
2023-04-17T07:48:48.368Z,101329.81
2023-04-17T07:49:51.684Z,101339.66
2023-04-17T07:50:55.137Z,101334.28
2023-04-17T07:51:57.682Z,101335.47
2023-04-17T07:53:01.178Z,101338.31
2023-04-17T07:54:04.626Z,101336.22
2023-04-17T07:55:08.890Z,101334.25
2023-04-17T07:56:13.241Z,101333.81
2023-04-17T07:57:18.229Z,101336.16
2023-04-17T07:58:20.454Z,101335.41
2023-04-17T07:59:24.247Z,101330.38
2023-04-17T08:00:26.727Z,101334.88
2023-04-17T08:01:32.175Z,101342.03
2023-04-17T08:02:35.684Z,101342.13
2023-04-17T08:03:41.935Z,101338.03
2023-04-17T08:04:44.980Z,101341.69
2023-04-17T08:05:48.522Z,101333.09
2023-04-17T08:06:52.400Z,101344.84
2023-04-17T08:07:55.833Z,101339.66
2023-04-17T08:09:00.124Z,101338.03
2023-04-17T08:10:03.810Z,101343.69
2023-04-17T08:11:07.789Z,101340.16
2023-04-17T08:12:11.743Z,101343.41
2023-04-17T08:13:14.590Z,101346.41
2023-04-17T08:14:20.366Z,101342.91
2023-04-17T08:15:22.822Z,101338.88
2023-04-17T08:16:26.267Z,101339.28
2023-04-17T08:17:31.453Z,101344.00
2023-04-17T08:18:39.918Z,101344.81
2023-04-17T08:19:42.300Z,101343.31
2023-04-17T08:20:46.002Z,101346.78
2023-04-17T08:21:48.878Z,101338.31
2023-04-17T08:22:52.270Z,101346.16
2023-04-17T08:23:54.884Z,101347.03
2023-04-17T08:24:58.884Z,101338.63
2023-04-17T08:26:03.293Z,101337.69
2023-04-17T08:27:06.421Z,101346.38
2023-04-17T08:28:10.300Z,101350.34
2023-04-17T08:29:12.988Z,101344.44
2023-04-17T08:30:19.191Z,101343.91
2023-04-17T08:31:23.254Z,101340.94
2023-04-17T08:32:26.844Z,101346.94
2023-04-17T08:33:31.396Z,101348.78
2023-04-17T08:34:36.666Z,101353.09
2023-04-17T08:35:40.976Z,101359.59
2023-04-17T08:36:43.614Z,101359.13
2023-04-17T08:37:48.121Z,101361.06
2023-04-17T08:38:52.163Z,101357.34
2023-04-17T08:39:55.609Z,101358.22
2023-04-17T08:41:03.035Z,101360.25
2023-04-17T08:42:14.047Z,101356.06
2023-04-17T08:43:21.283Z,101357.53
2023-04-17T08:44:23.791Z,101355.75
2023-04-17T08:45:27.596Z,101370.91
2023-04-17T08:46:31.508Z,101364.19
2023-04-17T08:47:36.196Z,101366.97
2023-04-17T08:48:41.540Z,101366.50
2023-04-17T08:49:46.196Z,101371.34
2023-04-17T08:50:51.390Z,101360.75
2023-04-17T08:51:53.738Z,101367.34
2023-04-17T08:52:57.147Z,101370.72
2023-04-17T08:53:59.600Z,101374.44
2023-04-17T08:55:03.080Z,101368.88
2023-04-17T08:56:08.908Z,101368.00
2023-04-17T08:57:11.549Z,101363.41
2023-04-17T08:58:16.064Z,101364.78
2023-04-17T08:59:18.364Z,101368.91
2023-04-17T09:00:26.524Z,101364.53
2023-04-17T09:01:30.245Z,101370.63
2023-04-17T09:02:34.474Z,101361.53
2023-04-17T09:03:45.155Z,101364.00
2023-04-17T09:04:48.898Z,101369.03
2023-04-17T09:05:59.726Z,101370.03
2023-04-17T09:07:02.503Z,101367.03
2023-04-17T09:08:15.004Z,101371.25
2023-04-17T09:09:18.077Z,101370.69
2023-04-17T09:10:22.483Z,101369.56
2023-04-17T09:11:25.937Z,101370.84
2023-04-17T09:12:29.833Z,101360.78
2023-04-17T09:13:42.047Z,101360.91
2023-04-17T09:14:44.834Z,101360.22
2023-04-17T09:15:50.135Z,101362.50
2023-04-17T09:16:54.949Z,101365.59
2023-04-17T09:17:59.059Z,101361.34
2023-04-17T09:19:09.156Z,101356.28
2023-04-17T09:20:12.485Z,101360.97
2023-04-17T09:21:18.933Z,101371.94
2023-04-17T09:22:22.893Z,101369.56
2023-04-17T09:23:27.375Z,101359.97
2023-04-17T09:24:38.131Z,101363.09
2023-04-17T09:25:41.733Z,101366.34
2023-04-17T09:26:44.454Z,101359.38
2023-04-17T09:27:48.564Z,101367.41
2023-04-17T09:29:04.276Z,101365.66
2023-04-17T09:30:08.334Z,101368.66
2023-04-17T09:31:27.560Z,101363.09
2023-04-17T09:32:31.889Z,101355.13
2023-04-17T09:33:36.513Z,101365.78
2023-04-17T09:34:42.662Z,101356.03
2023-04-17T09:35:46.226Z,101357.81
2023-04-17T09:36:56.235Z,101360.53
2023-04-17T09:37:59.530Z,101359.94
2023-04-17T09:39:06.470Z,101355.91
2023-04-17T09:40:12.039Z,101360.06
2023-04-17T09:41:24.990Z,101355.84
2023-04-17T09:42:27.973Z,101351.09
2023-04-17T09:43:43.639Z,101350.19
2023-04-17T09:44:46.213Z,101349.66
2023-04-17T09:45:52.431Z,101345.34
2023-04-17T09:46:55.905Z,101342.00
2023-04-17T09:47:59.521Z,101346.78
2023-04-17T09:49:09.458Z,101347.53
2023-04-17T09:50:16.354Z,101348.81
2023-04-17T09:51:19.953Z,101352.88
2023-04-17T09:52:25.198Z,101350.16
2023-04-17T09:53:29.560Z,101361.19
2023-04-17T09:54:33.045Z,101353.28
2023-04-17T09:55:38.369Z,101360.00
2023-04-17T09:56:41.560Z,101348.16
2023-04-17T09:57:46.670Z,101360.81
2023-04-17T09:58:50.610Z,101351.38
2023-04-17T09:59:59.662Z,101357.13
2023-04-17T10:01:04.123Z,101354.88
2023-04-17T10:02:08.753Z,101351.69
2023-04-17T10:03:18.170Z,101350.13
2023-04-17T10:04:22.917Z,101351.84
2023-04-17T10:05:29.347Z,101353.75
2023-04-17T10:06:33.163Z,101353.47
2023-04-17T10:07:38.032Z,101360.25
2023-04-17T10:08:41.302Z,101359.16
2023-04-17T10:09:46.046Z,101358.06
2023-04-17T10:10:50.934Z,101360.47
2023-04-17T10:11:54.139Z,101355.94
2023-04-17T10:13:01.230Z,101364.75
2023-04-17T10:14:11.122Z,101346.25
2023-04-17T10:15:16.431Z,101348.31
2023-04-17T10:16:20.298Z,101348.28
2023-04-17T10:17:24.347Z,101353.41
2023-04-17T10:18:28.813Z,101356.88
2023-04-17T10:19:32.741Z,101359.41
2023-04-17T10:20:39.873Z,101352.69
2023-04-17T10:21:42.258Z,101356.59
2023-04-17T10:22:46.382Z,101363.56
2023-04-17T10:23:49.655Z,101348.72
2023-04-17T10:25:13.859Z,101354.75
2023-04-17T10:26:41.319Z,101351.66
2023-04-17T10:27:45.550Z,101357.13
2023-04-17T10:28:50.911Z,101358.63
2023-04-17T10:29:54.776Z,101360.09
2023-04-17T10:30:58.791Z,101367.22
2023-04-17T10:32:28.917Z,101365.56
2023-04-17T10:33:32.404Z,101361.50
2023-04-17T10:34:35.866Z,101362.81
2023-04-17T10:35:41.470Z,101365.56
2023-04-17T10:36:57.019Z,101366.75
2023-04-17T10:38:06.494Z,101363.16
2023-04-17T10:39:15.029Z,101366.06
2023-04-17T10:40:21.482Z,101362.22
2023-04-17T10:41:27.508Z,101360.91
2023-04-17T10:42:31.190Z,101360.59
2023-04-17T10:43:34.950Z,101361.50
2023-04-17T10:44:40.000Z,101356.69
2023-04-17T10:45:59.579Z,101351.06
2023-04-17T10:47:07.069Z,101358.78
2023-04-17T10:48:21.677Z,101356.75
2023-04-17T10:49:25.041Z,101348.88
2023-04-17T10:50:30.086Z,101355.09
2023-04-17T10:51:44.663Z,101351.22
2023-04-17T10:52:47.846Z,101350.25
2023-04-17T10:53:53.119Z,101364.31
2023-04-17T10:55:06.682Z,101353.53
2023-04-17T10:56:09.950Z,101356.16
2023-04-17T10:57:13.280Z,101351.72
2023-04-17T10:58:17.170Z,101357.06
2023-04-17T10:59:22.149Z,101361.50
2023-04-17T11:00:33.347Z,101355.69
2023-04-17T11:01:40.987Z,101359.88
2023-04-17T11:02:45.765Z,101358.75
2023-04-17T11:03:49.537Z,101354.53
2023-04-17T11:05:07.862Z,101362.19
2023-04-17T11:06:13.332Z,101349.16
2023-04-17T11:07:17.349Z,101351.72
2023-04-17T11:08:21.374Z,101352.13
2023-04-17T11:09:27.564Z,101346.47
2023-04-17T11:10:31.062Z,101353.81
2023-04-17T11:11:44.009Z,101348.00
2023-04-17T11:12:49.542Z,101343.75
2023-04-17T11:13:53.131Z,101341.78
2023-04-17T11:15:03.274Z,101336.59
2023-04-17T11:16:06.009Z,101335.31
2023-04-17T11:17:10.828Z,101337.13
2023-04-17T11:18:14.180Z,101338.66
2023-04-17T11:19:21.559Z,101343.97
2023-04-17T11:20:27.343Z,101337.97
2023-04-17T11:21:30.214Z,101339.91
2023-04-17T11:22:36.553Z,101339.09
2023-04-17T11:23:40.356Z,101338.59
2023-04-17T11:24:42.822Z,101338.50
2023-04-17T11:25:47.593Z,101345.06
2023-04-17T11:26:50.197Z,101341.44
2023-04-17T11:27:56.512Z,101339.72
2023-04-17T11:29:01.221Z,101334.66
2023-04-17T11:30:04.005Z,101336.59
2023-04-17T11:31:07.621Z,101340.28
2023-04-17T11:32:13.806Z,101337.25
2023-04-17T11:33:17.427Z,101330.31
2023-04-17T11:34:20.582Z,101332.88
2023-04-17T11:35:29.562Z,101334.56
2023-04-17T11:36:34.455Z,101332.44
2023-04-17T11:38:06.286Z,101346.81
2023-04-17T11:39:11.378Z,101346.19
2023-04-17T11:40:14.126Z,101349.47
2023-04-17T11:41:17.523Z,101345.25
2023-04-17T11:42:28.460Z,101349.66
2023-04-17T11:43:37.049Z,101343.84
2023-04-17T11:44:43.390Z,101343.44
2023-04-17T11:45:49.273Z,101346.19
2023-04-17T11:46:55.134Z,101346.38
2023-04-17T11:47:57.604Z,101345.22
2023-04-17T11:49:01.116Z,101342.66
2023-04-17T11:50:04.256Z,101354.03
2023-04-17T11:51:08.739Z,101345.41
2023-04-17T11:52:11.138Z,101347.13
2023-04-17T11:53:17.526Z,101343.66
2023-04-17T11:54:28.297Z,101342.53
2023-04-17T11:55:31.694Z,101336.41
2023-04-17T11:56:35.994Z,101337.72
2023-04-17T11:57:44.035Z,101342.41
2023-04-17T11:58:48.925Z,101343.78
2023-04-17T11:59:51.704Z,101342.34
2023-04-17T12:01:06.838Z,101339.03
2023-04-17T12:02:10.203Z,101343.25
2023-04-17T12:03:35.498Z,101331.88
2023-04-17T12:04:40.608Z,101331.28
2023-04-17T12:05:43.343Z,101333.69
2023-04-17T12:06:46.719Z,101334.13
2023-04-17T12:08:00.379Z,101331.47
2023-04-17T12:09:07.348Z,101336.28
2023-04-17T12:10:10.185Z,101336.84
2023-04-17T12:11:20.838Z,101329.72
2023-04-17T12:12:24.769Z,101333.31
2023-04-17T12:13:27.337Z,101335.81
2023-04-17T12:14:31.604Z,101334.72
2023-04-17T12:15:35.366Z,101331.97